createdAt,value
2023-02-18T00:02:08.985Z,53.08
2023-02-18T00:04:37.863Z,48.72
2023-02-18T00:07:09.261Z,50.17
2023-02-18T00:09:39.993Z,52.15
2023-02-18T00:12:09.051Z,61.63
2023-02-18T00:14:37.830Z,71.43
2023-02-18T00:17:06.609Z,76.97
2023-02-18T00:19:35.551Z,78.35
2023-02-18T00:22:04.313Z,76.88
2023-02-18T00:24:34.718Z,68.72
2023-02-18T00:27:03.686Z,67.93
2023-02-18T00:29:32.506Z,63.45
2023-02-18T00:32:01.396Z,68.50
2023-02-18T00:34:31.836Z,63.45
2023-02-18T00:37:08.060Z,63.05
2023-02-18T00:39:38.676Z,67.80
2023-02-18T00:42:07.692Z,70.82
2023-02-18T00:44:36.463Z,69.72
2023-02-18T00:47:05.597Z,72.43
2023-02-18T00:49:35.017Z,77.32
2023-02-18T00:52:06.248Z,76.65
2023-02-18T00:54:35.384Z,104.85
2023-02-18T00:57:05.753Z,87.85
2023-02-18T00:59:34.574Z,87.43
2023-02-18T01:02:03.377Z,82.13
2023-02-18T01:04:32.385Z,74.85
2023-02-18T01:07:01.250Z,72.65
2023-02-18T01:09:30.937Z,79.57
2023-02-18T01:11:59.948Z,71.72
2023-02-18T01:14:30.164Z,69.15
2023-02-18T01:16:59.121Z,67.75
2023-02-18T01:19:27.972Z,66.63
2023-02-18T01:21:56.875Z,58.22
2023-02-18T01:24:25.703Z,53.92
2023-02-18T01:26:54.528Z,53.17
2023-02-18T01:29:23.307Z,49.13
2023-02-18T01:31:53.671Z,48.72
2023-02-18T01:34:22.568Z,47.00
2023-02-18T01:36:52.527Z,44.28
2023-02-18T01:39:21.383Z,47.45
2023-02-18T01:41:51.006Z,62.67
2023-02-18T01:44:23.134Z,54.22
2023-02-18T01:46:53.771Z,50.88
2023-02-18T01:49:28.077Z,52.63
2023-02-18T01:52:01.544Z,53.20
2023-02-18T01:54:34.652Z,58.08
2023-02-18T01:57:07.106Z,58.20
2023-02-18T01:59:40.420Z,58.90
2023-02-18T02:02:13.501Z,56.83
2023-02-18T02:04:42.927Z,59.20
2023-02-18T02:07:12.300Z,58.80
2023-02-18T02:09:42.435Z,58.65
2023-02-18T02:12:34.985Z,59.58
2023-02-18T02:15:28.011Z,61.10
2023-02-18T02:18:18.963Z,63.00
2023-02-18T02:21:29.138Z,61.00
2023-02-18T02:24:33.960Z,61.65
2023-02-18T02:27:13.925Z,59.13
2023-02-18T02:30:15.573Z,55.65
2023-02-18T02:33:20.562Z,51.78
2023-02-18T02:35:58.337Z,45.88
2023-02-18T02:38:34.835Z,47.03
2023-02-18T02:41:14.085Z,45.60
2023-02-18T02:43:53.612Z,46.20
2023-02-18T02:46:28.622Z,43.88
2023-02-18T02:49:10.130Z,45.10
2023-02-18T02:51:48.213Z,45.90
2023-02-18T02:54:20.487Z,43.65
2023-02-18T02:56:49.550Z,44.40
2023-02-18T02:59:26.432Z,52.85
2023-02-18T03:02:10.355Z,66.22
2023-02-18T03:04:57.185Z,87.78
2023-02-18T03:07:54.002Z,75.72
2023-02-18T03:10:37.616Z,70.25
2023-02-18T03:13:14.218Z,65.43
2023-02-18T03:15:51.153Z,63.40
2023-02-18T03:18:28.079Z,63.75
2023-02-18T03:20:59.411Z,68.05
2023-02-18T03:23:37.036Z,69.40
2023-02-18T03:26:07.750Z,68.32
2023-02-18T03:28:38.430Z,72.53
2023-02-18T03:31:29.365Z,74.72
2023-02-18T03:34:03.705Z,72.40
2023-02-18T03:36:34.505Z,72.82
2023-02-18T03:39:08.646Z,76.50
2023-02-18T03:41:38.324Z,75.78
2023-02-18T03:44:11.320Z,67.35
2023-02-18T03:46:43.786Z,60.28
2023-02-18T03:49:13.648Z,53.53
2023-02-18T03:51:43.260Z,51.83
2023-02-18T03:54:14.738Z,51.83
2023-02-18T03:56:45.410Z,49.47
2023-02-18T03:59:14.909Z,49.58
2023-02-18T04:01:43.744Z,47.72
2023-02-18T04:04:12.837Z,57.40
2023-02-18T04:06:41.644Z,58.53
2023-02-18T04:09:10.441Z,54.28
2023-02-18T04:11:41.844Z,62.25
2023-02-18T04:14:11.533Z,60.30
2023-02-18T04:16:40.325Z,66.40
2023-02-18T04:19:09.318Z,64.72
2023-02-18T04:21:38.347Z,64.32
2023-02-18T04:24:07.565Z,68.70
2023-02-18T04:26:36.425Z,68.65
2023-02-18T04:29:06.784Z,72.78
2023-02-18T04:31:37.382Z,73.35
2023-02-18T04:34:06.588Z,71.28
2023-02-18T04:36:36.689Z,71.93
2023-02-18T04:39:05.766Z,68.28
2023-02-18T04:41:35.126Z,65.72
2023-02-18T04:44:05.542Z,68.45
2023-02-18T04:46:34.750Z,65.07
2023-02-18T04:49:03.813Z,70.78
2023-02-18T04:51:32.925Z,70.93
2023-02-18T04:54:01.872Z,94.00
2023-02-18T04:56:30.793Z,92.63
2023-02-18T04:58:59.642Z,86.35
2023-02-18T05:01:31.566Z,79.57
2023-02-18T05:04:01.460Z,85.43
2023-02-18T05:06:30.517Z,90.85
2023-02-18T05:08:59.302Z,108.90
2023-02-18T05:11:28.893Z,102.68
2023-02-18T05:13:57.758Z,121.63
2023-02-18T05:16:26.727Z,124.22
2023-02-18T05:18:56.996Z,105.95
2023-02-18T05:21:45.314Z,85.20
2023-02-18T05:24:14.286Z,92.70
2023-02-18T05:26:43.201Z,87.15
2023-02-18T05:29:11.979Z,75.43
2023-02-18T05:31:41.053Z,66.43
2023-02-18T05:34:11.532Z,74.03
2023-02-18T05:36:42.862Z,78.43
2023-02-18T05:39:12.277Z,86.25
2023-02-18T05:41:42.010Z,85.90
2023-02-18T05:44:29.120Z,72.35
2023-02-18T05:46:58.096Z,74.85
2023-02-18T05:49:28.497Z,80.15
2023-02-18T05:51:59.647Z,85.50
2023-02-18T05:54:29.271Z,104.13
2023-02-18T05:56:58.062Z,135.25
2023-02-18T05:59:28.009Z,151.05
2023-02-18T06:02:15.681Z,127.53
2023-02-18T06:04:46.469Z,118.03
2023-02-18T06:07:16.531Z,118.73
2023-02-18T06:09:46.988Z,113.77
2023-02-18T06:12:15.948Z,108.30
2023-02-18T06:14:44.920Z,105.00
2023-02-18T06:17:15.036Z,106.43
2023-02-18T06:19:46.706Z,105.40
2023-02-18T06:22:16.158Z,96.90
2023-02-18T06:24:45.456Z,92.33
2023-02-18T06:27:15.867Z,99.73
2023-02-18T06:29:45.537Z,92.73
2023-02-18T06:32:14.500Z,89.30
2023-02-18T06:34:43.509Z,87.87
2023-02-18T06:37:13.820Z,87.57
2023-02-18T06:39:42.836Z,86.93
2023-02-18T06:42:11.890Z,81.17
2023-02-18T06:44:41.420Z,65.13
2023-02-18T06:47:11.704Z,65.63
2023-02-18T06:49:40.765Z,64.23
2023-02-18T06:52:09.557Z,61.87
2023-02-18T06:54:40.164Z,65.00
2023-02-18T06:57:09.254Z,61.60
2023-02-18T06:59:38.570Z,57.43
2023-02-18T07:02:07.606Z,57.00
2023-02-18T07:04:36.670Z,57.10
2023-02-18T07:07:05.543Z,55.77
2023-02-18T07:09:34.430Z,57.53
2023-02-18T07:12:06.346Z,57.57
2023-02-18T07:14:54.085Z,59.63
2023-02-18T07:17:23.191Z,56.37
2023-02-18T07:19:52.248Z,59.33
2023-02-18T07:22:21.289Z,60.67
2023-02-18T07:24:59.420Z,59.43
2023-02-18T07:27:30.780Z,57.73
2023-02-18T07:29:59.849Z,60.40
2023-02-18T07:32:29.028Z,60.80
2023-02-18T07:34:57.834Z,62.23
2023-02-18T07:37:26.782Z,60.90
2023-02-18T07:39:55.633Z,61.90
2023-02-18T07:42:24.454Z,62.33
2023-02-18T07:44:54.819Z,54.97
2023-02-18T07:47:24.593Z,58.13
2023-02-18T07:49:55.060Z,57.83
2023-02-18T07:52:23.907Z,59.73
2023-02-18T07:55:01.820Z,53.53
2023-02-18T07:57:54.819Z,53.57
2023-02-18T08:00:26.019Z,55.97
2023-02-18T08:02:54.939Z,54.23
2023-02-18T08:05:30.457Z,54.67
2023-02-18T08:07:59.464Z,51.43
2023-02-18T08:10:28.379Z,43.10
2023-02-18T08:12:57.211Z,46.23
2023-02-18T08:15:27.497Z,50.57
2023-02-18T08:17:57.155Z,49.77
2023-02-18T08:20:27.085Z,48.30
2023-02-18T08:22:58.537Z,48.47
2023-02-18T08:25:30.066Z,45.83
2023-02-18T08:27:59.974Z,48.70
2023-02-18T08:30:30.467Z,51.30
2023-02-18T08:32:59.537Z,44.67
2023-02-18T08:35:28.462Z,45.60
2023-02-18T08:37:57.845Z,45.87
2023-02-18T08:40:27.595Z,46.73
2023-02-18T08:42:56.500Z,48.57
2023-02-18T08:45:25.306Z,50.07
2023-02-18T08:48:16.886Z,46.97
2023-02-18T08:50:44.725Z,43.50
2023-02-18T08:53:13.851Z,43.87
2023-02-18T08:55:43.192Z,45.00
2023-02-18T08:58:12.314Z,42.77
2023-02-18T09:00:42.330Z,47.63
2023-02-18T09:03:18.086Z,50.53
2023-02-18T09:06:12.827Z,45.33
2023-02-18T09:08:41.596Z,42.77
2023-02-18T09:11:13.315Z,42.23
2023-02-18T09:13:42.239Z,39.70
2023-02-18T09:16:20.424Z,42.77
2023-02-18T09:18:52.152Z,40.17
2023-02-18T09:21:26.983Z,38.63
2023-02-18T09:23:56.098Z,38.97
2023-02-18T09:26:26.539Z,40.03
2023-02-18T09:28:57.921Z,38.37
2023-02-18T09:31:28.811Z,34.80
2023-02-18T09:34:01.623Z,28.47
2023-02-18T09:36:32.519Z,31.60
2023-02-18T09:39:01.833Z,30.03
2023-02-18T09:41:41.386Z,29.27
2023-02-18T09:44:15.105Z,32.33
2023-02-18T09:46:50.899Z,33.87
2023-02-18T09:49:24.972Z,39.60
2023-02-18T09:51:55.576Z,36.90
2023-02-18T09:54:25.863Z,35.23
2023-02-18T09:56:55.999Z,34.07
2023-02-18T09:59:51.720Z,36.33
2023-02-18T10:02:21.942Z,33.67
2023-02-18T10:04:56.485Z,35.23
2023-02-18T10:07:29.161Z,33.00
2023-02-18T10:10:06.604Z,41.50
2023-02-18T10:12:36.671Z,41.40
2023-02-18T10:15:18.599Z,44.07
2023-02-18T10:17:49.591Z,45.13
2023-02-18T10:20:24.300Z,42.13
2023-02-18T10:23:03.046Z,36.20
2023-02-18T10:25:40.999Z,32.90
2023-02-18T10:28:12.848Z,30.03
2023-02-18T10:30:44.385Z,28.70
2023-02-18T10:33:29.469Z,26.60
2023-02-18T10:36:15.007Z,27.33
2023-02-18T10:38:57.717Z,32.40
2023-02-18T10:41:33.373Z,28.23
2023-02-18T10:44:10.307Z,35.97
2023-02-18T10:46:51.776Z,42.83
2023-02-18T10:49:54.939Z,41.30
2023-02-18T10:52:29.221Z,34.13
2023-02-18T10:55:02.656Z,31.40
2023-02-18T10:57:33.179Z,41.83
2023-02-18T11:00:12.096Z,42.53
2023-02-18T11:02:41.632Z,26.73
2023-02-18T11:05:24.251Z,27.03
2023-02-18T11:07:58.091Z,28.57
2023-02-18T11:10:30.831Z,30.27
2023-02-18T11:13:02.341Z,32.47
2023-02-18T11:15:32.053Z,24.03
2023-02-18T11:18:31.778Z,22.83
2023-02-18T11:21:02.628Z,22.93
2023-02-18T11:23:46.691Z,22.77
2023-02-18T11:26:18.158Z,23.20
2023-02-18T11:28:49.570Z,22.03
2023-02-18T11:31:35.815Z,25.23
2023-02-18T11:34:06.802Z,29.33
2023-02-18T11:36:38.969Z,22.57
2023-02-18T11:39:21.741Z,22.17
2023-02-18T11:41:57.724Z,22.57
2023-02-18T11:44:30.929Z,22.50
2023-02-18T11:47:02.773Z,40.60
2023-02-18T11:49:34.947Z,28.90
2023-02-18T11:52:17.928Z,25.67
2023-02-18T11:55:02.112Z,25.10
2023-02-18T11:57:31.999Z,24.27
2023-02-18T12:00:02.524Z,25.30
2023-02-18T12:02:40.235Z,26.17
2023-02-18T12:05:15.933Z,30.20
2023-02-18T12:07:49.684Z,27.10
2023-02-18T12:10:28.281Z,28.90
2023-02-18T12:13:03.758Z,28.87
2023-02-18T12:15:49.324Z,30.43
2023-02-18T12:18:44.732Z,25.13
2023-02-18T12:21:27.384Z,23.93
2023-02-18T12:24:12.296Z,21.33
2023-02-18T12:26:55.839Z,20.27
2023-02-18T12:29:42.256Z,19.73
2023-02-18T12:32:37.301Z,21.73
2023-02-18T12:35:21.043Z,21.47
2023-02-18T12:38:15.592Z,20.93
2023-02-18T12:41:00.487Z,21.17
2023-02-18T12:43:52.463Z,20.57
2023-02-18T12:46:37.326Z,20.23
2023-02-18T12:49:23.454Z,20.07
2023-02-18T12:52:14.295Z,20.80
2023-02-18T12:54:55.149Z,24.27
2023-02-18T12:57:35.685Z,23.27
2023-02-18T13:00:50.248Z,19.70
2023-02-18T13:03:38.680Z,21.50
2023-02-18T13:06:23.584Z,20.47
2023-02-18T13:09:05.527Z,22.63
2023-02-18T13:11:45.471Z,19.87
2023-02-18T13:14:19.008Z,11.47
2023-02-18T13:16:53.877Z,12.73
2023-02-18T13:19:25.757Z,26.73
2023-02-18T13:21:59.560Z,9.60
2023-02-18T13:24:35.089Z,9.40
2023-02-18T13:27:21.330Z,7.50
2023-02-18T13:30:01.924Z,8.83
2023-02-18T13:32:38.527Z,7.60
2023-02-18T13:35:19.252Z,7.50
2023-02-18T13:38:04.549Z,7.37
2023-02-18T13:40:35.815Z,7.23
2023-02-18T13:43:23.001Z,6.60
2023-02-18T13:46:12.248Z,6.73
2023-02-18T13:48:46.958Z,7.53
2023-02-18T13:51:29.490Z,6.97
2023-02-18T13:54:05.868Z,7.07
2023-02-18T13:56:37.264Z,6.77
2023-02-18T13:59:13.065Z,8.27
2023-02-18T14:01:44.964Z,7.77
2023-02-18T14:04:37.982Z,7.60
2023-02-18T14:07:27.752Z,7.47
2023-02-18T14:09:58.934Z,7.67
2023-02-18T14:12:46.197Z,7.80
2023-02-18T14:15:53.529Z,9.40
2023-02-18T14:18:31.151Z,9.30
2023-02-18T14:21:22.729Z,7.83
2023-02-18T14:24:14.948Z,8.03
2023-02-18T14:26:49.998Z,8.60
2023-02-18T14:29:32.671Z,15.97
2023-02-18T14:32:09.679Z,10.87
2023-02-18T14:34:58.946Z,8.50
2023-02-18T14:38:09.621Z,16.17
2023-02-18T14:41:00.158Z,11.97
2023-02-18T14:44:19.730Z,10.10
2023-02-18T14:47:05.315Z,8.93
2023-02-18T14:49:42.293Z,12.13
2023-02-18T14:52:26.194Z,11.73
2023-02-18T14:54:56.632Z,10.50
2023-02-18T14:57:35.780Z,18.53
2023-02-18T15:00:07.510Z,16.57
2023-02-18T15:02:39.431Z,22.80
2023-02-18T15:05:16.349Z,20.13
2023-02-18T15:08:00.907Z,19.37
2023-02-18T15:10:55.714Z,20.27
2023-02-18T15:13:29.304Z,19.00
2023-02-18T15:16:01.143Z,18.10
2023-02-18T15:18:35.197Z,19.07
2023-02-18T15:21:05.283Z,11.63
2023-02-18T15:23:38.282Z,13.23
2023-02-18T15:26:10.074Z,14.53
2023-02-18T15:28:52.765Z,16.77
2023-02-18T15:31:28.180Z,14.57
2023-02-18T15:34:15.883Z,17.80
2023-02-18T15:36:45.055Z,22.43
2023-02-18T15:39:17.467Z,16.13
2023-02-18T15:41:47.443Z,19.00
2023-02-18T15:44:24.196Z,19.30
2023-02-18T15:46:54.242Z,21.13
2023-02-18T15:49:25.830Z,16.37
2023-02-18T15:51:59.075Z,17.93
2023-02-18T15:54:31.426Z,16.50
2023-02-18T15:57:04.960Z,13.57
2023-02-18T15:59:38.043Z,15.70
2023-02-18T16:02:20.073Z,20.10
2023-02-18T16:04:52.758Z,24.30
2023-02-18T16:07:27.980Z,17.03
2023-02-18T16:10:27.885Z,15.90
2023-02-18T16:13:01.192Z,17.13
2023-02-18T16:15:33.968Z,20.07
2023-02-18T16:18:03.086Z,21.07
2023-02-18T16:20:36.322Z,29.53
2023-02-18T16:23:24.978Z,22.40
2023-02-18T16:25:53.877Z,12.80
2023-02-18T16:28:28.067Z,11.90
2023-02-18T16:30:58.593Z,16.13
2023-02-18T16:33:27.582Z,32.97
2023-02-18T16:35:57.921Z,55.67
2023-02-18T16:38:27.865Z,43.83
2023-02-18T16:40:56.793Z,20.73
2023-02-18T16:43:33.417Z,21.10
2023-02-18T16:46:18.873Z,17.17
2023-02-18T16:48:55.778Z,18.73
2023-02-18T16:51:27.840Z,13.50
2023-02-18T16:53:58.810Z,17.57
2023-02-18T16:56:31.067Z,23.40
2023-02-18T16:59:04.984Z,17.40
2023-02-18T17:01:42.031Z,15.47
2023-02-18T17:04:14.571Z,24.47
2023-02-18T17:07:01.166Z,24.47
2023-02-18T17:09:30.434Z,24.10
2023-02-18T17:12:00.155Z,21.87
2023-02-18T17:14:29.539Z,15.90
2023-02-18T17:17:00.452Z,15.17
2023-02-18T17:19:31.393Z,13.13
2023-02-18T17:22:00.692Z,12.23
2023-02-18T17:24:34.273Z,14.53
2023-02-18T17:27:03.689Z,18.70
2023-02-18T17:29:32.755Z,22.43
2023-02-18T17:32:04.120Z,20.73
2023-02-18T17:34:34.460Z,28.00
2023-02-18T17:37:07.676Z,16.60
2023-02-18T17:39:41.456Z,18.70
2023-02-18T17:42:15.284Z,26.63
2023-02-18T17:44:45.901Z,22.50
2023-02-18T17:47:19.103Z,23.43
2023-02-18T17:49:49.407Z,22.13
2023-02-18T17:52:34.065Z,12.47
2023-02-18T17:55:06.055Z,12.00
2023-02-18T17:57:55.225Z,10.93
2023-02-18T18:00:32.788Z,9.67
2023-02-18T18:03:15.813Z,10.67
2023-02-18T18:05:49.804Z,11.40
2023-02-18T18:08:23.727Z,9.63
2023-02-18T18:11:00.139Z,13.40
2023-02-18T18:13:46.596Z,13.77
2023-02-18T18:16:17.624Z,14.37
2023-02-18T18:18:51.057Z,12.60
2023-02-18T18:21:29.214Z,12.03
2023-02-18T18:24:08.489Z,14.27
2023-02-18T18:26:42.598Z,13.83
2023-02-18T18:29:30.468Z,13.20
2023-02-18T18:31:59.360Z,14.83
2023-02-18T18:34:30.395Z,14.13
2023-02-18T18:36:59.535Z,15.13
2023-02-18T18:39:31.174Z,14.37
2023-02-18T18:42:02.188Z,17.90
2023-02-18T18:44:31.391Z,14.20
2023-02-18T18:47:00.521Z,12.60
2023-02-18T18:49:34.351Z,12.50
2023-02-18T18:52:06.031Z,13.67
2023-02-18T18:54:35.450Z,14.10
2023-02-18T18:57:04.975Z,13.40
2023-02-18T18:59:33.807Z,14.50
2023-02-18T19:02:02.718Z,14.00
2023-02-18T19:04:36.683Z,16.23
2023-02-18T19:07:05.986Z,15.23
2023-02-18T19:09:38.600Z,15.37
2023-02-18T19:12:09.912Z,16.07
2023-02-18T19:14:39.164Z,17.53
2023-02-18T19:17:08.100Z,15.20
2023-02-18T19:19:38.568Z,14.67
2023-02-18T19:22:07.365Z,15.13
2023-02-18T19:24:36.521Z,14.50
2023-02-18T19:27:05.431Z,54.83
2023-02-18T19:29:38.132Z,18.33
2023-02-18T19:32:08.792Z,43.47
2023-02-18T19:34:58.734Z,18.90
2023-02-18T19:37:38.109Z,22.93
2023-02-18T19:40:15.149Z,22.70
2023-02-18T19:42:52.246Z,21.70
2023-02-18T19:45:45.000Z,17.00
2023-02-18T19:48:17.082Z,15.67
2023-02-18T19:51:09.536Z,19.23
2023-02-18T19:53:41.006Z,18.07
2023-02-18T19:56:12.378Z,19.90
2023-02-18T19:58:41.751Z,28.37
2023-02-18T20:01:14.567Z,21.27
2023-02-18T20:03:44.489Z,14.90
2023-02-18T20:06:23.366Z,14.90
2023-02-18T20:08:54.817Z,14.30
2023-02-18T20:11:24.145Z,15.40
2023-02-18T20:13:52.928Z,14.53
2023-02-18T20:16:22.904Z,14.33
2023-02-18T20:18:52.322Z,24.37
2023-02-18T20:21:23.910Z,16.47
2023-02-18T20:23:57.135Z,15.70
2023-02-18T20:26:26.933Z,14.53
2023-02-18T20:28:56.933Z,14.70
2023-02-18T20:31:27.191Z,14.80
2023-02-18T20:33:58.224Z,14.40
2023-02-18T20:36:29.152Z,14.97
2023-02-18T20:39:07.604Z,16.10
2023-02-18T20:41:43.657Z,15.27
2023-02-18T20:44:13.079Z,16.40
2023-02-18T20:46:42.053Z,16.17
2023-02-18T20:49:14.687Z,17.40
2023-02-18T20:51:45.306Z,18.20
2023-02-18T20:54:19.782Z,18.37
2023-02-18T20:56:51.105Z,18.47
2023-02-18T20:59:21.970Z,19.37
2023-02-18T21:01:51.004Z,17.93
2023-02-18T21:04:22.063Z,19.77
2023-02-18T21:06:53.110Z,19.37
2023-02-18T21:09:22.763Z,19.03
2023-02-18T21:11:51.698Z,18.87
2023-02-18T21:14:21.031Z,18.77
2023-02-18T21:16:50.514Z,19.93
2023-02-18T21:19:19.841Z,19.57
2023-02-18T21:21:49.931Z,20.33
2023-02-18T21:24:21.617Z,20.53
2023-02-18T21:26:51.000Z,20.53
2023-02-18T21:29:23.353Z,19.47
2023-02-18T21:34:34.842Z,19.10
2023-02-18T21:37:10.059Z,17.90
2023-02-18T21:39:41.289Z,19.10
2023-02-18T21:42:11.268Z,20.37
2023-02-18T21:44:44.361Z,19.70
2023-02-18T21:47:13.475Z,18.53
2023-02-18T21:49:48.007Z,18.20
2023-02-18T21:52:17.269Z,16.73
2023-02-18T21:54:48.230Z,16.70
2023-02-18T21:57:18.912Z,14.37
2023-02-18T21:59:47.948Z,16.23
2023-02-18T22:02:18.570Z,16.80
2023-02-18T22:04:48.299Z,17.70
2023-02-18T22:07:17.743Z,18.67
2023-02-18T22:09:49.040Z,18.50
2023-02-18T22:12:18.288Z,18.93
2023-02-18T22:14:47.154Z,19.10
2023-02-18T22:17:16.816Z,18.83
2023-02-18T22:19:46.354Z,18.97
2023-02-18T22:22:15.248Z,19.13
2023-02-18T22:24:44.007Z,19.80
2023-02-18T22:27:15.228Z,19.63
2023-02-18T22:29:44.543Z,21.30
2023-02-18T22:32:13.492Z,21.33
2023-02-18T22:34:42.607Z,22.43
2023-02-18T22:37:11.818Z,20.40
2023-02-18T22:39:41.467Z,19.03
2023-02-18T22:42:10.330Z,18.10
2023-02-18T22:44:41.456Z,21.33
2023-02-18T22:47:10.348Z,21.47
2023-02-18T22:49:39.189Z,20.43
2023-02-18T22:52:08.317Z,19.47
2023-02-18T22:54:37.372Z,18.93
2023-02-18T22:57:06.154Z,19.20
2023-02-18T22:59:35.442Z,17.83
2023-02-18T23:02:05.799Z,20.97
2023-02-18T23:04:34.688Z,24.03
2023-02-18T23:07:03.504Z,23.53
2023-02-18T23:09:32.370Z,22.80
2023-02-18T23:12:01.437Z,18.70
2023-02-18T23:14:30.731Z,17.17
2023-02-18T23:17:18.084Z,17.77
2023-02-18T23:19:50.299Z,19.67
2023-02-18T23:22:21.793Z,18.77
2023-02-18T23:24:50.959Z,16.27
2023-02-18T23:27:19.931Z,17.17
2023-02-18T23:29:48.827Z,19.87
2023-02-18T23:32:17.934Z,19.10
2023-02-18T23:34:48.187Z,21.40
2023-02-18T23:37:17.117Z,17.00
2023-02-18T23:39:47.580Z,16.70
2023-02-18T23:42:17.147Z,15.70
2023-02-18T23:44:50.266Z,15.90
2023-02-18T23:47:19.350Z,14.57
2023-02-18T23:49:49.620Z,16.23
2023-02-18T23:52:18.460Z,14.87
2023-02-18T23:54:47.257Z,14.03
2023-02-18T23:57:16.077Z,15.20
2023-02-18T23:59:44.852Z,15.33
